sensor_id;sensor_type;location;lat;lon;timestamp;P1;durP1;ratioP1;P2;durP2;ratioP2
37169;SDS011;23062;13.952;100.608;2022-09-24T00:03:51;10.00;;;7.00;;
37169;SDS011;23062;13.952;100.608;2022-09-24T00:08:42;9.00;;;7.00;;
37169;SDS011;23062;13.952;100.608;2022-09-24T00:13:32;10.00;;;7.00;;
37169;SDS011;23062;13.952;100.608;2022-09-24T00:18:22;9.00;;;6.00;;
37169;SDS011;23062;13.952;100.608;2022-09-24T00:23:11;8.00;;;5.00;;
37169;SDS011;23062;13.952;100.608;2022-09-24T00:28:00;8.00;;;5.00;;
37169;SDS011;23062;13.952;100.608;2022-09-24T00:33:03;9.00;;;6.00;;
37169;SDS011;23062;13.952;100.608;2022-09-24T00:37:52;10.00;;;7.00;;
37169;SDS011;23062;13.952;100.608;2022-09-24T00:42:42;9.00;;;6.00;;
37169;SDS011;23062;13.952;100.608;2022-09-24T00:47:33;7.00;;;5.00;;
37169;SDS011;23062;13.952;100.608;2022-09-24T00:52:22;8.00;;;5.00;;
37169;SDS011;23062;13.952;100.608;2022-09-24T00:57:11;7.00;;;5.00;;
37169;SDS011;23062;13.952;100.608;2022-09-24T01:02:01;8.00;;;5.00;;
37169;SDS011;23062;13.952;100.608;2022-09-24T01:06:50;10.00;;;7.00;;
37169;SDS011;23062;13.952;100.608;2022-09-24T01:11:53;8.00;;;6.00;;
37169;SDS011;23062;13.952;100.608;2022-09-24T01:21:53;6.00;;;4.00;;
37169;SDS011;23062;13.952;100.608;2022-09-24T01:26:47;8.00;;;6.00;;
37169;SDS011;23062;13.952;100.608;2022-09-24T01:31:48;8.00;;;6.00;;
37169;SDS011;23062;13.952;100.608;2022-09-24T01:36:46;11.00;;;8.00;;
37169;SDS011;23062;13.952;100.608;2022-09-24T01:41:36;9.00;;;6.00;;
37169;SDS011;23062;13.952;100.608;2022-09-24T01:46:28;11.00;;;8.00;;
37169;SDS011;23062;13.952;100.608;2022-09-24T01:51:22;11.00;;;8.00;;
37169;SDS011;23062;13.952;100.608;2022-09-24T01:56:14;13.00;;;10.00;;
37169;SDS011;23062;13.952;100.608;2022-09-24T02:01:05;13.00;;;10.00;;
37169;SDS011;23062;13.952;100.608;2022-09-24T02:05:59;16.00;;;12.00;;
37169;SDS011;23062;13.952;100.608;2022-09-24T02:15:44;14.00;;;11.00;;
37169;SDS011;23062;13.952;100.608;2022-09-24T02:20:34;14.00;;;11.00;;
37169;SDS011;23062;13.952;100.608;2022-09-24T02:25:33;14.00;;;11.00;;
37169;SDS011;23062;13.952;100.608;2022-09-24T02:30:20;13.00;;;10.00;;
37169;SDS011;23062;13.952;100.608;2022-09-24T02:35:10;15.00;;;11.00;;
37169;SDS011;23062;13.952;100.608;2022-09-24T02:39:59;15.00;;;11.00;;
37169;SDS011;23062;13.952;100.608;2022-09-24T02:44:50;12.00;;;9.00;;
37169;SDS011;23062;13.952;100.608;2022-09-24T02:49:40;12.00;;;9.00;;
37169;SDS011;23062;13.952;100.608;2022-09-24T02:54:29;16.00;;;12.00;;
37169;SDS011;23062;13.952;100.608;2022-09-24T02:59:19;14.00;;;10.00;;
37169;SDS011;23062;13.952;100.608;2022-09-24T03:04:09;12.00;;;9.00;;
37169;SDS011;23062;13.952;100.608;2022-09-24T03:08:59;15.00;;;11.00;;
37169;SDS011;23062;13.952;100.608;2022-09-24T03:13:49;13.00;;;10.00;;
37169;SDS011;23062;13.952;100.608;2022-09-24T03:18:38;15.00;;;11.00;;
37169;SDS011;23062;13.952;100.608;2022-09-24T03:23:28;14.00;;;10.00;;
37169;SDS011;23062;13.952;100.608;2022-09-24T03:28:17;12.00;;;9.00;;
37169;SDS011;23062;13.952;100.608;2022-09-24T03:33:06;14.00;;;11.00;;
37169;SDS011;23062;13.952;100.608;2022-09-24T03:37:55;13.00;;;9.00;;
37169;SDS011;23062;13.952;100.608;2022-09-24T03:42:44;13.00;;;10.00;;
37169;SDS011;23062;13.952;100.608;2022-09-24T03:47:34;16.00;;;11.00;;
37169;SDS011;23062;13.952;100.608;2022-09-24T03:52:23;13.00;;;10.00;;
37169;SDS011;23062;13.952;100.608;2022-09-24T03:57:13;14.00;;;10.00;;
37169;SDS011;23062;13.952;100.608;2022-09-24T04:02:02;14.00;;;10.00;;
37169;SDS011;23062;13.952;100.608;2022-09-24T04:06:51;13.00;;;10.00;;
37169;SDS011;23062;13.952;100.608;2022-09-24T04:11:40;11.00;;;8.00;;
37169;SDS011;23062;13.952;100.608;2022-09-24T04:16:30;10.00;;;7.00;;
37169;SDS011;23062;13.952;100.608;2022-09-24T04:21:19;11.00;;;8.00;;
37169;SDS011;23062;13.952;100.608;2022-09-24T04:26:08;15.00;;;10.00;;
37169;SDS011;23062;13.952;100.608;2022-09-24T04:30:58;12.00;;;8.00;;
37169;SDS011;23062;13.952;100.608;2022-09-24T04:35:47;13.00;;;10.00;;
37169;SDS011;23062;13.952;100.608;2022-09-24T04:40:36;15.00;;;11.00;;
37169;SDS011;23062;13.952;100.608;2022-09-24T04:45:26;12.00;;;8.00;;
37169;SDS011;23062;13.952;100.608;2022-09-24T04:50:17;15.00;;;11.00;;
37169;SDS011;23062;13.952;100.608;2022-09-24T04:55:07;15.00;;;10.00;;
37169;SDS011;23062;13.952;100.608;2022-09-24T04:59:56;16.00;;;11.00;;
37169;SDS011;23062;13.952;100.608;2022-09-24T05:04:46;19.00;;;14.00;;
37169;SDS011;23062;13.952;100.608;2022-09-24T05:09:35;15.00;;;11.00;;
37169;SDS011;23062;13.952;100.608;2022-09-24T05:14:25;17.00;;;12.00;;
37169;SDS011;23062;13.952;100.608;2022-09-24T05:19:14;15.00;;;11.00;;
37169;SDS011;23062;13.952;100.608;2022-09-24T05:24:04;16.00;;;12.00;;
37169;SDS011;23062;13.952;100.608;2022-09-24T05:28:54;15.00;;;11.00;;
37169;SDS011;23062;13.952;100.608;2022-09-24T05:33:43;15.00;;;11.00;;
37169;SDS011;23062;13.952;100.608;2022-09-24T05:38:34;16.00;;;11.00;;
37169;SDS011;23062;13.952;100.608;2022-09-24T05:43:23;20.00;;;14.00;;
37169;SDS011;23062;13.952;100.608;2022-09-24T05:48:13;16.00;;;11.20;;
37169;SDS011;23062;13.952;100.608;2022-09-24T05:53:03;18.00;;;13.00;;
37169;SDS011;23062;13.952;100.608;2022-09-24T05:57:53;16.00;;;12.00;;
37169;SDS011;23062;13.952;100.608;2022-09-24T06:02:44;18.00;;;13.00;;
37169;SDS011;23062;13.952;100.608;2022-09-24T06:07:33;15.00;;;11.00;;
37169;SDS011;23062;13.952;100.608;2022-09-24T06:12:22;18.00;;;14.00;;
37169;SDS011;23062;13.952;100.608;2022-09-24T06:17:13;18.00;;;13.00;;
37169;SDS011;23062;13.952;100.608;2022-09-24T06:22:04;18.00;;;13.00;;
37169;SDS011;23062;13.952;100.608;2022-09-24T06:26:53;18.00;;;14.00;;
37169;SDS011;23062;13.952;100.608;2022-09-24T06:31:44;17.00;;;13.00;;
37169;SDS011;23062;13.952;100.608;2022-09-24T06:36:35;14.00;;;11.00;;
37169;SDS011;23062;13.952;100.608;2022-09-24T06:41:25;21.00;;;15.00;;
37169;SDS011;23062;13.952;100.608;2022-09-24T06:46:15;15.00;;;11.00;;
37169;SDS011;23062;13.952;100.608;2022-09-24T06:51:04;17.00;;;12.00;;
37169;SDS011;23062;13.952;100.608;2022-09-24T06:55:55;21.00;;;15.00;;
37169;SDS011;23062;13.952;100.608;2022-09-24T07:00:51;23.00;;;16.00;;
37169;SDS011;23062;13.952;100.608;2022-09-24T07:05:47;21.00;;;15.00;;
37169;SDS011;23062;13.952;100.608;2022-09-24T07:10:36;19.00;;;15.00;;
37169;SDS011;23062;13.952;100.608;2022-09-24T07:15:27;21.00;;;14.00;;
37169;SDS011;23062;13.952;100.608;2022-09-24T07:20:17;22.00;;;17.00;;
37169;SDS011;23062;13.952;100.608;2022-09-24T07:25:10;22.00;;;16.00;;
37169;SDS011;23062;13.952;100.608;2022-09-24T07:30:00;21.00;;;16.00;;
37169;SDS011;23062;13.952;100.608;2022-09-24T07:34:49;19.00;;;14.00;;
37169;SDS011;23062;13.952;100.608;2022-09-24T07:39:39;20.00;;;15.00;;
37169;SDS011;23062;13.952;100.608;2022-09-24T07:44:28;20.00;;;15.00;;
37169;SDS011;23062;13.952;100.608;2022-09-24T07:49:18;24.00;;;17.00;;
37169;SDS011;23062;13.952;100.608;2022-09-24T07:54:08;43.00;;;33.00;;
37169;SDS011;23062;13.952;100.608;2022-09-24T07:58:58;36.00;;;26.00;;
37169;SDS011;23062;13.952;100.608;2022-09-24T08:03:47;34.00;;;25.00;;
37169;SDS011;23062;13.952;100.608;2022-09-24T08:08:37;25.00;;;20.00;;
37169;SDS011;23062;13.952;100.608;2022-09-24T08:13:28;25.00;;;19.00;;
37169;SDS011;23062;13.952;100.608;2022-09-24T08:18:18;24.00;;;19.00;;
37169;SDS011;23062;13.952;100.608;2022-09-24T08:23:08;21.00;;;16.00;;
37169;SDS011;23062;13.952;100.608;2022-09-24T08:28:01;19.00;;;15.00;;
37169;SDS011;23062;13.952;100.608;2022-09-24T08:32:52;24.00;;;17.00;;
37169;SDS011;23062;13.952;100.608;2022-09-24T08:37:42;24.00;;;17.00;;
37169;SDS011;23062;13.952;100.608;2022-09-24T08:42:41;20.00;;;15.00;;
37169;SDS011;23062;13.952;100.608;2022-09-24T08:52:38;24.00;;;18.00;;
37169;SDS011;23062;13.952;100.608;2022-09-24T08:57:36;31.00;;;23.00;;
37169;SDS011;23062;13.952;100.608;2022-09-24T09:02:32;28.00;;;21.00;;
37169;SDS011;23062;13.952;100.608;2022-09-24T09:07:20;28.00;;;20.00;;
37169;SDS011;23062;13.952;100.608;2022-09-24T09:12:24;22.00;;;14.93;;
37169;SDS011;23062;13.952;100.608;2022-09-24T09:17:19;19.00;;;13.00;;
37169;SDS011;23062;13.952;100.608;2022-09-24T09:22:14;18.00;;;14.00;;
37169;SDS011;23062;13.952;100.608;2022-09-24T09:27:08;22.00;;;16.00;;
37169;SDS011;23062;13.952;100.608;2022-09-24T09:37:10;20.00;;;15.00;;
37169;SDS011;23062;13.952;100.608;2022-09-24T09:42:16;19.00;;;14.00;;
37169;SDS011;23062;13.952;100.608;2022-09-24T09:52:27;20.00;;;14.00;;
37169;SDS011;23062;13.952;100.608;2022-09-24T09:57:23;21.00;;;16.00;;
37169;SDS011;23062;13.952;100.608;2022-09-24T10:02:30;18.00;;;14.00;;
37169;SDS011;23062;13.952;100.608;2022-09-24T10:07:19;20.00;;;15.00;;
37169;SDS011;23062;13.952;100.608;2022-09-24T10:12:08;19.00;;;14.00;;
37169;SDS011;23062;13.952;100.608;2022-09-24T10:17:09;16.00;;;12.00;;
37169;SDS011;23062;13.952;100.608;2022-09-24T10:22:05;17.00;;;12.00;;
37169;SDS011;23062;13.952;100.608;2022-09-24T10:26:56;18.00;;;13.00;;
37169;SDS011;23062;13.952;100.608;2022-09-24T10:31:47;19.00;;;15.00;;
37169;SDS011;23062;13.952;100.608;2022-09-24T10:36:36;17.00;;;12.00;;
37169;SDS011;23062;13.952;100.608;2022-09-24T10:41:26;18.00;;;13.00;;
37169;SDS011;23062;13.952;100.608;2022-09-24T10:51:34;18.00;;;13.00;;
37169;SDS011;23062;13.952;100.608;2022-09-24T10:56:28;16.00;;;12.00;;
37169;SDS011;23062;13.952;100.608;2022-09-24T11:01:33;18.00;;;13.00;;
37169;SDS011;23062;13.952;100.608;2022-09-24T11:07:06;17.00;;;13.00;;
37169;SDS011;23062;13.952;100.608;2022-09-24T11:22:12;13.00;;;10.00;;
37169;SDS011;23062;13.952;100.608;2022-09-24T11:32:28;14.00;;;11.00;;
37169;SDS011;23062;13.952;100.608;2022-09-24T11:37:22;13.00;;;8.67;;
37169;SDS011;23062;13.952;100.608;2022-09-24T11:42:26;13.00;;;9.00;;
37169;SDS011;23062;13.952;100.608;2022-09-24T12:02:49;11.00;;;8.00;;
37169;SDS011;23062;13.952;100.608;2022-09-24T12:12:49;14.00;;;10.00;;
37169;SDS011;23062;13.952;100.608;2022-09-24T12:17:42;15.00;;;11.00;;
37169;SDS011;23062;13.952;100.608;2022-09-24T12:22:43;16.00;;;11.00;;
37169;SDS011;23062;13.952;100.608;2022-09-24T12:27:36;18.00;;;14.00;;
37169;SDS011;23062;13.952;100.608;2022-09-24T12:32:29;16.00;;;12.00;;
37169;SDS011;23062;13.952;100.608;2022-09-24T12:37:42;15.00;;;11.00;;
37169;SDS011;23062;13.952;100.608;2022-09-24T12:42:35;14.00;;;10.00;;
37169;SDS011;23062;13.952;100.608;2022-09-24T12:47:26;14.00;;;10.00;;
37169;SDS011;23062;13.952;100.608;2022-09-24T12:57:25;11.00;;;8.00;;
37169;SDS011;23062;13.952;100.608;2022-09-24T13:02:17;15.00;;;11.00;;
37169;SDS011;23062;13.952;100.608;2022-09-24T13:12:22;15.00;;;10.00;;
37169;SDS011;23062;13.952;100.608;2022-09-24T13:17:23;16.00;;;11.00;;
37169;SDS011;23062;13.952;100.608;2022-09-24T13:22:25;14.00;;;10.00;;
37169;SDS011;23062;13.952;100.608;2022-09-24T13:27:34;17.00;;;11.20;;
37169;SDS011;23062;13.952;100.608;2022-09-24T13:32:10;12.00;;;9.00;;
37169;SDS011;23062;13.952;100.608;2022-09-24T13:42:14;12.00;;;9.00;;
37169;SDS011;23062;13.952;100.608;2022-09-24T13:47:12;17.00;;;13.00;;
37169;SDS011;23062;13.952;100.608;2022-09-24T13:57:12;15.00;;;11.00;;
37169;SDS011;23062;13.952;100.608;2022-09-24T14:02:27;14.00;;;10.00;;
37169;SDS011;23062;13.952;100.608;2022-09-24T14:07:14;17.00;;;13.00;;
37169;SDS011;23062;13.952;100.608;2022-09-24T14:12:14;16.00;;;12.00;;
37169;SDS011;23062;13.952;100.608;2022-09-24T14:17:07;14.00;;;10.00;;
37169;SDS011;23062;13.952;100.608;2022-09-24T14:21:57;15.00;;;11.00;;
37169;SDS011;23062;13.952;100.608;2022-09-24T14:26:48;13.00;;;10.00;;
37169;SDS011;23062;13.952;100.608;2022-09-24T14:31:48;14.00;;;10.00;;
37169;SDS011;23062;13.952;100.608;2022-09-24T14:36:38;12.00;;;9.00;;
37169;SDS011;23062;13.952;100.608;2022-09-24T14:41:28;15.00;;;11.00;;
37169;SDS011;23062;13.952;100.608;2022-09-24T14:46:25;16.00;;;11.00;;
37169;SDS011;23062;13.952;100.608;2022-09-24T14:51:25;15.00;;;11.00;;
37169;SDS011;23062;13.952;100.608;2022-09-24T14:56:19;14.00;;;10.00;;
37169;SDS011;23062;13.952;100.608;2022-09-24T15:01:19;16.00;;;12.00;;
37169;SDS011;23062;13.952;100.608;2022-09-24T15:11:05;18.00;;;13.00;;
37169;SDS011;23062;13.952;100.608;2022-09-24T15:21:05;14.00;;;11.00;;
37169;SDS011;23062;13.952;100.608;2022-09-24T15:25:57;15.00;;;11.00;;
37169;SDS011;23062;13.952;100.608;2022-09-24T15:30:46;16.00;;;12.00;;
37169;SDS011;23062;13.952;100.608;2022-09-24T15:35:35;12.00;;;9.00;;
37169;SDS011;23062;13.952;100.608;2022-09-24T15:40:26;13.00;;;9.00;;
37169;SDS011;23062;13.952;100.608;2022-09-24T15:45:17;14.00;;;10.00;;
37169;SDS011;23062;13.952;100.608;2022-09-24T15:50:09;11.00;;;8.00;;
37169;SDS011;23062;13.952;100.608;2022-09-24T15:54:59;14.00;;;10.00;;
37169;SDS011;23062;13.952;100.608;2022-09-24T15:59:49;11.00;;;8.00;;
37169;SDS011;23062;13.952;100.608;2022-09-24T16:04:39;11.00;;;8.00;;
37169;SDS011;23062;13.952;100.608;2022-09-24T16:09:28;9.00;;;7.00;;
37169;SDS011;23062;13.952;100.608;2022-09-24T16:14:18;11.00;;;8.00;;
37169;SDS011;23062;13.952;100.608;2022-09-24T16:19:08;10.00;;;7.00;;
37169;SDS011;23062;13.952;100.608;2022-09-24T16:23:57;11.00;;;8.00;;
37169;SDS011;23062;13.952;100.608;2022-09-24T16:28:47;11.00;;;8.00;;
37169;SDS011;23062;13.952;100.608;2022-09-24T16:33:37;13.00;;;9.00;;
37169;SDS011;23062;13.952;100.608;2022-09-24T16:38:26;11.00;;;8.00;;
37169;SDS011;23062;13.952;100.608;2022-09-24T16:43:15;11.00;;;8.00;;
37169;SDS011;23062;13.952;100.608;2022-09-24T16:48:05;12.00;;;9.00;;
37169;SDS011;23062;13.952;100.608;2022-09-24T16:52:54;12.00;;;8.00;;
37169;SDS011;23062;13.952;100.608;2022-09-24T16:57:43;11.00;;;8.00;;
37169;SDS011;23062;13.952;100.608;2022-09-24T17:02:32;12.00;;;9.00;;
37169;SDS011;23062;13.952;100.608;2022-09-24T17:07:22;10.00;;;7.00;;
37169;SDS011;23062;13.952;100.608;2022-09-24T17:12:12;11.00;;;8.00;;
37169;SDS011;23062;13.952;100.608;2022-09-24T17:17:01;9.00;;;7.00;;
37169;SDS011;23062;13.952;100.608;2022-09-24T17:21:51;12.00;;;8.00;;
37169;SDS011;23062;13.952;100.608;2022-09-24T17:26:40;9.00;;;6.00;;
37169;SDS011;23062;13.952;100.608;2022-09-24T17:31:30;10.00;;;7.00;;
37169;SDS011;23062;13.952;100.608;2022-09-24T17:36:19;9.00;;;6.00;;
37169;SDS011;23062;13.952;100.608;2022-09-24T17:41:11;8.00;;;6.00;;
37169;SDS011;23062;13.952;100.608;2022-09-24T17:46:01;7.00;;;5.00;;
37169;SDS011;23062;13.952;100.608;2022-09-24T17:50:59;7.00;;;5.00;;
37169;SDS011;23062;13.952;100.608;2022-09-24T17:55:53;9.00;;;6.00;;
37169;SDS011;23062;13.952;100.608;2022-09-24T18:00:42;9.00;;;6.00;;
37169;SDS011;23062;13.952;100.608;2022-09-24T18:05:32;8.00;;;5.00;;
37169;SDS011;23062;13.952;100.608;2022-09-24T18:10:21;6.00;;;4.00;;
37169;SDS011;23062;13.952;100.608;2022-09-24T18:15:11;6.00;;;3.73;;
37169;SDS011;23062;13.952;100.608;2022-09-24T18:20:00;5.00;;;3.00;;
37169;SDS011;23062;13.952;100.608;2022-09-24T18:24:49;5.00;;;3.00;;
37169;SDS011;23062;13.952;100.608;2022-09-24T18:29:40;3.00;;;2.00;;
37169;SDS011;23062;13.952;100.608;2022-09-24T18:34:30;7.00;;;5.00;;
37169;SDS011;23062;13.952;100.608;2022-09-24T18:39:19;5.00;;;3.00;;
37169;SDS011;23062;13.952;100.608;2022-09-24T18:44:08;5.00;;;3.00;;
37169;SDS011;23062;13.952;100.608;2022-09-24T18:48:58;4.00;;;2.00;;
37169;SDS011;23062;13.952;100.608;2022-09-24T18:53:54;4.00;;;3.00;;
37169;SDS011;23062;13.952;100.608;2022-09-24T18:58:45;5.00;;;3.00;;
37169;SDS011;23062;13.952;100.608;2022-09-24T19:03:35;6.00;;;4.00;;
37169;SDS011;23062;13.952;100.608;2022-09-24T19:08:25;4.00;;;3.00;;
37169;SDS011;23062;13.952;100.608;2022-09-24T19:13:17;5.00;;;3.00;;
37169;SDS011;23062;13.952;100.608;2022-09-24T19:18:09;5.00;;;3.00;;
37169;SDS011;23062;13.952;100.608;2022-09-24T19:22:59;7.00;;;5.00;;
37169;SDS011;23062;13.952;100.608;2022-09-24T19:27:49;8.00;;;6.00;;
37169;SDS011;23062;13.952;100.608;2022-09-24T19:32:38;8.00;;;6.00;;
37169;SDS011;23062;13.952;100.608;2022-09-24T19:37:29;7.00;;;5.00;;
37169;SDS011;23062;13.952;100.608;2022-09-24T19:42:19;7.00;;;5.00;;
37169;SDS011;23062;13.952;100.608;2022-09-24T19:47:09;8.00;;;6.00;;
37169;SDS011;23062;13.952;100.608;2022-09-24T19:51:58;10.00;;;6.53;;
37169;SDS011;23062;13.952;100.608;2022-09-24T19:56:49;10.00;;;7.00;;
37169;SDS011;23062;13.952;100.608;2022-09-24T20:01:40;11.00;;;7.00;;
37169;SDS011;23062;13.952;100.608;2022-09-24T20:06:30;9.00;;;6.00;;
37169;SDS011;23062;13.952;100.608;2022-09-24T20:11:22;9.00;;;6.00;;
37169;SDS011;23062;13.952;100.608;2022-09-24T20:16:16;10.00;;;7.00;;
37169;SDS011;23062;13.952;100.608;2022-09-24T20:21:06;8.00;;;6.00;;
37169;SDS011;23062;13.952;100.608;2022-09-24T20:25:57;9.00;;;6.00;;
37169;SDS011;23062;13.952;100.608;2022-09-24T20:31:14;9.00;;;6.00;;
37169;SDS011;23062;13.952;100.608;2022-09-24T20:36:05;9.00;;;6.00;;
37169;SDS011;23062;13.952;100.608;2022-09-24T20:40:55;9.00;;;6.00;;
37169;SDS011;23062;13.952;100.608;2022-09-24T20:45:45;7.00;;;5.00;;
37169;SDS011;23062;13.952;100.608;2022-09-24T20:50:34;7.00;;;5.00;;
37169;SDS011;23062;13.952;100.608;2022-09-24T20:55:23;7.00;;;5.00;;
37169;SDS011;23062;13.952;100.608;2022-09-24T21:00:13;8.00;;;6.00;;
37169;SDS011;23062;13.952;100.608;2022-09-24T21:05:03;8.00;;;6.00;;
37169;SDS011;23062;13.952;100.608;2022-09-24T21:09:53;9.00;;;6.00;;
37169;SDS011;23062;13.952;100.608;2022-09-24T21:14:43;7.00;;;5.00;;
37169;SDS011;23062;13.952;100.608;2022-09-24T21:19:33;8.00;;;5.00;;
37169;SDS011;23062;13.952;100.608;2022-09-24T21:24:23;5.00;;;4.00;;
37169;SDS011;23062;13.952;100.608;2022-09-24T21:29:15;8.00;;;5.00;;
37169;SDS011;23062;13.952;100.608;2022-09-24T21:34:07;10.00;;;7.00;;
37169;SDS011;23062;13.952;100.608;2022-09-24T21:38:57;13.00;;;9.00;;
37169;SDS011;23062;13.952;100.608;2022-09-24T21:43:48;14.00;;;10.00;;
37169;SDS011;23062;13.952;100.608;2022-09-24T21:48:38;12.00;;;8.00;;
37169;SDS011;23062;13.952;100.608;2022-09-24T21:53:28;12.00;;;9.00;;
37169;SDS011;23062;13.952;100.608;2022-09-24T21:58:18;13.00;;;9.00;;
37169;SDS011;23062;13.952;100.608;2022-09-24T22:03:07;12.00;;;8.00;;
37169;SDS011;23062;13.952;100.608;2022-09-24T22:07:59;10.00;;;7.00;;
37169;SDS011;23062;13.952;100.608;2022-09-24T22:12:50;14.00;;;10.00;;
37169;SDS011;23062;13.952;100.608;2022-09-24T22:17:39;12.00;;;8.00;;
37169;SDS011;23062;13.952;100.608;2022-09-24T22:27:22;13.00;;;9.00;;
37169;SDS011;23062;13.952;100.608;2022-09-24T22:37:38;8.00;;;6.00;;
37169;SDS011;23062;13.952;100.608;2022-09-24T22:42:27;12.00;;;8.00;;
37169;SDS011;23062;13.952;100.608;2022-09-24T22:47:17;12.00;;;8.00;;
37169;SDS011;23062;13.952;100.608;2022-09-24T22:52:06;10.00;;;7.00;;
37169;SDS011;23062;13.952;100.608;2022-09-24T22:56:56;10.00;;;7.00;;
37169;SDS011;23062;13.952;100.608;2022-09-24T23:01:45;11.00;;;8.00;;
37169;SDS011;23062;13.952;100.608;2022-09-24T23:06:34;10.00;;;8.00;;
37169;SDS011;23062;13.952;100.608;2022-09-24T23:11:25;12.00;;;9.00;;
37169;SDS011;23062;13.952;100.608;2022-09-24T23:16:16;11.00;;;8.00;;
37169;SDS011;23062;13.952;100.608;2022-09-24T23:21:07;10.00;;;7.00;;
37169;SDS011;23062;13.952;100.608;2022-09-24T23:26:01;10.00;;;7.00;;
37169;SDS011;23062;13.952;100.608;2022-09-24T23:30:57;7.00;;;5.00;;
37169;SDS011;23062;13.952;100.608;2022-09-24T23:35:50;9.00;;;6.00;;
37169;SDS011;23062;13.952;100.608;2022-09-24T23:40:40;9.00;;;6.00;;
37169;SDS011;23062;13.952;100.608;2022-09-24T23:45:29;11.00;;;7.00;;
37169;SDS011;23062;13.952;100.608;2022-09-24T23:50:18;8.00;;;5.00;;
37169;SDS011;23062;13.952;100.608;2022-09-24T23:55:07;9.00;;;6.00;;
37169;SDS011;23062;13.952;100.608;2022-09-24T23:59:56;7.00;;;5.00;;
